Time;durP1;ratioP1;P1;durP2;ratioP2;P2;SDS_P1;SDS_P2;PMS_P1;PMS_P2;Temp;Humidity;BMP_temperature;BMP_pressure;BME280_temperature;BME280_humidity;BME280_pressure;Samples;Min_cycle;Max_cycle;Signal;HPM_P1;HPM_P2
2023/06/29 00:00:08;;;;;;;;;;;;;;;14.75;77.98;99426.86;1741901;81;20135;-65
2023/06/29 00:02:33;;;;;;;;;;;;;;;14.72;78.01;99423.13;1744346;81;20447;-63
2023/06/29 00:05:00;;;;;;;;;;;;;;;14.68;78.08;99426.93;1746005;81;20174;-63
2023/06/29 00:07:26;;;;;;;;;;;;;;;14.67;78.24;99430.48;1746714;81;20185;-65
2023/06/29 00:09:53;;;;;;;;;;;;;;;14.64;78.19;99422.81;1743790;81;20175;-64
2023/06/29 00:12:19;;;;;;;;;;;;;;;14.61;78.20;99433.53;1714580;83;20097;-65
2023/06/29 00:14:45;;;;;;;;;;;;;;;14.58;78.36;99431.13;1682912;84;20205;-64
2023/06/29 00:17:14;;;;;;;;;;;;;;;14.53;78.25;99429.63;1701486;84;20515;-63
2023/06/29 00:19:39;;;;;;;;;;;;;;;14.50;78.49;99427.19;1732590;82;20984;-63
2023/06/29 00:22:08;;;;;;;;;;;;;;;14.48;78.59;99429.10;1705850;82;20499;-65
2023/06/29 00:24:42;;;;;;;;;;;;;;;14.46;78.60;99428.36;1691057;83;20172;-63
2023/06/29 00:27:01;;;;;;;;;;;;;;;14.41;78.60;99419.11;1683322;85;20178;-63
2023/06/29 00:29:32;;;;;;;;;;;;;;;14.38;78.84;99420.16;1731683;82;20166;-64
2023/06/29 00:31:56;;;;;;;;;;;;;;;14.36;78.91;99427.28;1716460;81;20160;-64
2023/06/29 00:34:22;;;;;;;;;;;;;;;14.33;79.01;99428.81;1712252;83;20503;-64
2023/06/29 00:36:48;;;;;;;;;;;;;;;14.32;79.04;99423.20;1686604;84;20111;-65
2023/06/29 00:39:14;;;;;;;;;;;;;;;14.29;79.39;99422.09;1705930;83;20236;-65
2023/06/29 00:41:41;;;;;;;;;;;;;;;14.27;79.53;99414.78;1708523;84;20392;-64
2023/06/29 00:44:08;;;;;;;;;;;;;;;14.25;79.54;99419.29;1716202;82;20397;-62
2023/06/29 00:46:34;;;;;;;;;;;;;;;14.22;79.49;99420.33;1726938;82;20450;-65
2023/06/29 00:49:00;;;;;;;;;;;;;;;14.21;79.58;99425.70;1715385;83;20160;-65
2023/06/29 00:51:27;;;;;;;;;;;;;;;14.19;79.72;99425.80;1748915;81;20149;-64
2023/06/29 00:53:53;;;;;;;;;;;;;;;14.19;79.91;99430.21;1751940;81;20142;-63
2023/06/29 00:56:20;;;;;;;;;;;;;;;14.18;79.94;99432.00;1749269;81;20181;-63
2023/06/29 00:58:48;;;;;;;;;;;;;;;14.17;79.85;99429.46;1748789;81;20131;-64
2023/06/29 01:01:14;;;;;;;;;;;;;;;14.13;80.20;99425.38;1749664;81;20445;-64
2023/06/29 01:03:42;;;;;;;;;;;;;;;14.15;80.38;99431.38;1749509;81;20212;-64
2023/06/29 01:06:10;;;;;;;;;;;;;;;14.17;80.53;99434.72;1751355;81;20101;-64
2023/06/29 01:08:38;;;;;;;;;;;;;;;14.20;80.66;99431.88;1747582;81;20158;-65
2023/06/29 01:11:04;;;;;;;;;;;;;;;14.22;81.06;99424.75;1746013;81;20130;-63
2023/06/29 01:13:32;;;;;;;;;;;;;;;14.26;80.94;99415.74;1748534;81;20452;-64
2023/06/29 01:15:59;;;;;;;;;;;;;;;14.26;80.85;99410.48;1746644;81;20171;-64
2023/06/29 01:18:26;;;;;;;;;;;;;;;14.24;81.00;99414.99;1748467;81;20154;-63
2023/06/29 01:20:53;;;;;;;;;;;;;;;14.21;81.30;99413.41;1750115;81;20107;-64
2023/06/29 01:23:21;;;;;;;;;;;;;;;14.20;81.12;99416.13;1749968;81;20158;-64
2023/06/29 01:25:47;;;;;;;;;;;;;;;14.19;81.52;99417.08;1749301;80;20146;-64
2023/06/29 01:28:13;;;;;;;;;;;;;;;14.20;81.49;99410.88;1750117;81;20119;-63
2023/06/29 01:30:49;;;;;;;;;;;;;;;14.19;81.68;99407.89;1751461;81;20090;-64
2023/06/29 01:33:14;;;;;;;;;;;;;;;14.17;81.78;99414.58;1749574;81;20161;-65
2023/06/29 01:35:41;;;;;;;;;;;;;;;14.19;81.65;99409.20;1748367;81;20173;-64
2023/06/29 01:38:09;;;;;;;;;;;;;;;14.21;82.21;99402.08;1748301;81;20131;-63
2023/06/29 01:40:37;;;;;;;;;;;;;;;14.25;82.24;99401.74;1750087;81;20116;-63
2023/06/29 01:43:03;;;;;;;;;;;;;;;14.27;82.31;99402.97;1750832;81;20143;-64
2023/06/29 01:45:30;;;;;;;;;;;;;;;14.30;82.66;99406.70;1750684;81;20197;-63
2023/06/29 01:47:58;;;;;;;;;;;;;;;14.38;82.82;99403.08;1716752;83;20121;-64
2023/06/29 01:50:24;;;;;;;;;;;;;;;14.44;82.70;99396.09;1687147;84;20178;-64
2023/06/29 01:52:51;;;;;;;;;;;;;;;14.52;82.71;99406.95;1705427;84;20156;-63
2023/06/29 01:55:17;;;;;;;;;;;;;;;14.55;82.76;99400.16;1708260;84;20102;-64
2023/06/29 01:57:43;;;;;;;;;;;;;;;14.61;83.09;99395.44;1687346;83;20160;-63
2023/06/29 02:00:09;;;;;;;;;;;;;;;14.64;82.85;99388.66;1685994;84;20188;-64
2023/06/29 02:02:35;;;;;;;;;;;;;;;14.68;82.92;99388.83;1708206;84;20165;-64
2023/06/29 02:05:02;;;;;;;;;;;;;;;14.70;83.10;99385.59;1687927;83;20138;-64
2023/06/29 02:07:28;;;;;;;;;;;;;;;14.71;83.20;99382.05;1713229;83;20101;-64
2023/06/29 02:09:54;;;;;;;;;;;;;;;14.74;83.24;99383.97;1716299;82;21278;-64
2023/06/29 02:12:20;;;;;;;;;;;;;;;14.78;83.54;99393.79;1687589;83;20171;-64
2023/06/29 02:14:47;;;;;;;;;;;;;;;14.80;83.65;99386.64;1687077;84;20142;-65
2023/06/29 02:17:13;;;;;;;;;;;;;;;14.80;83.51;99389.27;1688507;84;20111;-63
2023/06/29 02:19:39;;;;;;;;;;;;;;;14.83;83.64;99384.28;1691597;84;20120;-63
2023/06/29 02:22:05;;;;;;;;;;;;;;;14.85;83.61;99381.91;1734474;82;20159;-64
2023/06/29 02:24:31;;;;;;;;;;;;;;;14.88;83.96;99384.33;1725767;82;20153;-64
2023/06/29 02:27:00;;;;;;;;;;;;;;;14.93;83.97;99386.64;1726942;82;20102;-64
2023/06/29 02:29:26;;;;;;;;;;;;;;;14.95;84.14;99389.50;1733220;82;20151;-65
2023/06/29 02:31:52;;;;;;;;;;;;;;;14.99;84.05;99384.88;1737212;82;20166;-64
2023/06/29 02:34:18;;;;;;;;;;;;;;;15.05;84.20;99387.55;1732599;82;20232;-64
2023/06/29 02:36:44;;;;;;;;;;;;;;;15.11;84.34;99391.05;1726606;82;20150;-63
2023/06/29 02:39:10;;;;;;;;;;;;;;;15.14;84.14;99386.89;1720451;82;20165;-64
2023/06/29 02:41:37;;;;;;;;;;;;;;;15.14;84.20;99375.89;1724562;82;20456;-63
2023/06/29 02:44:03;;;;;;;;;;;;;;;15.17;84.80;99381.41;1719030;82;20426;-64
2023/06/29 02:46:30;;;;;;;;;;;;;;;15.21;84.52;99385.52;1715728;83;20130;-64
2023/06/29 02:48:56;;;;;;;;;;;;;;;15.24;84.46;99383.98;1710157;83;20170;-64
2023/06/29 02:51:22;;;;;;;;;;;;;;;15.23;84.26;99386.22;1686976;84;20146;-64
2023/06/29 02:53:48;;;;;;;;;;;;;;;15.25;84.57;99392.22;1714318;83;20172;-64
2023/06/29 02:56:14;;;;;;;;;;;;;;;15.29;84.66;99388.88;1685643;84;20402;-64
2023/06/29 02:58:41;;;;;;;;;;;;;;;15.34;84.78;99387.60;1708433;84;20157;-64
2023/06/29 03:01:07;;;;;;;;;;;;;;;15.39;84.72;99390.75;1728654;82;20174;-65
2023/06/29 03:03:33;;;;;;;;;;;;;;;15.44;84.87;99393.89;1724161;82;20101;-64
2023/06/29 03:05:59;;;;;;;;;;;;;;;15.45;84.89;99391.61;1731563;82;20130;-63
2023/06/29 03:08:27;;;;;;;;;;;;;;;15.53;85.08;99392.86;1737554;82;20460;-64
2023/06/29 03:10:54;;;;;;;;;;;;;;;15.56;85.02;99390.83;1730233;82;20153;-63
2023/06/29 03:13:20;;;;;;;;;;;;;;;15.62;85.09;99395.64;1734019;82;20164;-64
2023/06/29 03:15:46;;;;;;;;;;;;;;;15.70;85.26;99399.55;1735280;82;20149;-64
2023/06/29 03:18:12;;;;;;;;;;;;;;;15.77;85.35;99394.20;1729714;82;20118;-64
2023/06/29 03:20:38;;;;;;;;;;;;;;;15.82;85.23;99395.55;1724965;82;20412;-64
2023/06/29 03:23:05;;;;;;;;;;;;;;;15.88;85.22;99396.41;1714701;83;20113;-64
2023/06/29 03:25:31;;;;;;;;;;;;;;;15.93;85.24;99398.67;1705708;83;20208;-64
2023/06/29 03:27:57;;;;;;;;;;;;;;;15.98;85.30;99395.70;1689436;83;20144;-65
2023/06/29 03:30:23;;;;;;;;;;;;;;;15.96;85.15;99385.75;1687390;83;20136;-64
2023/06/29 03:32:50;;;;;;;;;;;;;;;16.02;85.20;99394.51;1685784;85;20178;-64
2023/06/29 03:35:17;;;;;;;;;;;;;;;16.07;85.24;99395.01;1710056;83;20131;-64
2023/06/29 03:37:43;;;;;;;;;;;;;;;16.11;85.38;99401.73;1689510;83;20144;-65
2023/06/29 03:40:09;;;;;;;;;;;;;;;16.17;85.30;99393.38;1686113;84;20503;-64
2023/06/29 03:42:35;;;;;;;;;;;;;;;16.22;85.42;99385.97;1707124;84;20128;-64
2023/06/29 03:45:02;;;;;;;;;;;;;;;16.27;85.45;99389.09;1709656;84;20164;-63
2023/06/29 03:47:28;;;;;;;;;;;;;;;16.33;85.40;99391.25;1694730;83;20200;-64
2023/06/29 03:49:54;;;;;;;;;;;;;;;16.40;85.41;99394.25;1686366;85;20162;-65
2023/06/29 03:52:20;;;;;;;;;;;;;;;16.43;85.33;99395.81;1710087;84;20207;-64
2023/06/29 03:54:48;;;;;;;;;;;;;;;16.43;85.08;99397.13;1691680;83;20207;-65
2023/06/29 03:57:14;;;;;;;;;;;;;;;16.41;85.02;99397.72;1686352;85;20154;-64
2023/06/29 03:59:40;;;;;;;;;;;;;;;16.45;85.03;99399.17;1709459;83;20106;-64
2023/06/29 04:02:06;;;;;;;;;;;;;;;16.45;84.93;99392.11;1713010;83;20198;-64
2023/06/29 04:04:32;;;;;;;;;;;;;;;16.46;84.94;99398.20;1751289;81;20099;-65
2023/06/29 04:06:58;;;;;;;;;;;;;;;16.46;85.08;99395.57;1747184;81;20429;-63
2023/06/29 04:09:25;;;;;;;;;;;;;;;16.48;85.16;99401.57;1751377;81;20390;-65
2023/06/29 04:11:51;;;;;;;;;;;;;;;16.51;85.14;99398.21;1749158;81;20149;-65
2023/06/29 04:14:17;;;;;;;;;;;;;;;16.57;85.13;99403.48;1751091;81;20469;-64
2023/06/29 04:16:43;;;;;;;;;;;;;;;16.63;85.20;99405.64;1749411;81;20102;-64
2023/06/29 04:19:11;;;;;;;;;;;;;;;16.67;85.21;99401.83;1752954;81;20126;-64
2023/06/29 04:21:37;;;;;;;;;;;;;;;16.68;84.93;99395.59;1749109;80;20207;-64
2023/06/29 04:24:04;;;;;;;;;;;;;;;16.73;85.23;99396.56;1749221;80;20203;-64
2023/06/29 04:26:30;;;;;;;;;;;;;;;16.84;85.41;99390.00;1753962;81;20129;-64
2023/06/29 04:29:00;;;;;;;;;;;;;;;16.85;85.06;99392.16;1748263;81;20152;-64
2023/06/29 04:31:28;;;;;;;;;;;;;;;16.86;85.07;99388.55;1750475;80;20113;-64
2023/06/29 04:33:54;;;;;;;;;;;;;;;16.90;85.14;99390.00;1750964;81;20150;-63
2023/06/29 04:36:21;;;;;;;;;;;;;;;16.98;85.29;99384.96;1750449;81;20161;-63
2023/06/29 04:38:48;;;;;;;;;;;;;;;17.13;85.72;99396.92;1715138;83;20125;-64
2023/06/29 04:41:14;;;;;;;;;;;;;;;17.38;85.90;99393.64;1709073;83;20182;-64
2023/06/29 04:43:40;;;;;;;;;;;;;;;17.62;85.92;99391.66;1688338;83;21065;-64
2023/06/29 04:46:06;;;;;;;;;;;;;;;17.93;85.80;99394.44;1683760;84;20175;-64
2023/06/29 04:48:37;;;;;;;;;;;;;;;18.16;85.39;99391.69;1684874;84;20116;-65
2023/06/29 04:51:02;;;;;;;;;;;;;;;18.38;85.44;99391.55;1687827;83;20202;-64
2023/06/29 04:53:29;;;;;;;;;;;;;;;18.68;85.77;99392.52;1686417;83;20128;-64
2023/06/29 04:55:55;;;;;;;;;;;;;;;18.99;85.19;99386.29;1707491;83;20180;-64
2023/06/29 04:58:26;;;;;;;;;;;;;;;19.28;84.88;99390.81;1707329;84;20145;-64
2023/06/29 05:00:50;;;;;;;;;;;;;;;19.49;84.54;99390.70;1718228;82;20169;-64
2023/06/29 05:03:16;;;;;;;;;;;;;;;19.60;83.90;99390.56;1708526;83;20160;-65
2023/06/29 05:05:44;;;;;;;;;;;;;;;19.62;83.17;99390.44;1723727;82;20110;-64
2023/06/29 05:08:10;;;;;;;;;;;;;;;19.52;82.78;99390.45;1714015;83;20175;-66
2023/06/29 05:10:36;;;;;;;;;;;;;;;19.42;82.65;99385.13;1704731;83;20132;-63
2023/06/29 05:13:04;;;;;;;;;;;;;;;19.37;82.90;99384.70;1680109;85;20142;-65
2023/06/29 05:15:31;;;;;;;;;;;;;;;19.40;82.85;99383.09;1679399;85;20175;-64
2023/06/29 05:17:58;;;;;;;;;;;;;;;19.41;82.96;99394.05;1673500;84;20422;-64
2023/06/29 05:20:25;;;;;;;;;;;;;;;19.42;82.71;99397.53;1686024;85;20413;-65
2023/06/29 05:22:52;;;;;;;;;;;;;;;19.44;82.55;99392.45;1710774;83;20160;-66
2023/06/29 05:25:18;;;;;;;;;;;;;;;19.41;82.31;99391.41;1719053;82;20217;-65
2023/06/29 05:27:44;;;;;;;;;;;;;;;19.29;82.14;99396.45;1730095;82;20117;-65
2023/06/29 05:30:12;;;;;;;;;;;;;;;19.31;82.35;99397.66;1716032;82;20128;-64
2023/06/29 05:32:38;;;;;;;;;;;;;;;19.41;82.48;99387.92;1709548;84;20101;-66
2023/06/29 05:35:04;;;;;;;;;;;;;;;19.51;82.13;99398.52;1695763;83;20283;-66
2023/06/29 05:37:31;;;;;;;;;;;;;;;19.59;82.16;99402.64;1686396;83;20185;-65
2023/06/29 05:39:57;;;;;;;;;;;;;;;19.63;81.65;99406.67;1706390;82;20102;-66
2023/06/29 05:42:23;;;;;;;;;;;;;;;19.65;81.78;99400.76;1719251;82;20118;-67
2023/06/29 05:44:50;;;;;;;;;;;;;;;19.79;81.54;99405.67;1708676;83;20200;-67
2023/06/29 05:47:16;;;;;;;;;;;;;;;19.78;81.12;99409.31;1713025;84;20192;-66
2023/06/29 05:49:42;;;;;;;;;;;;;;;19.83;81.31;99409.73;1698870;83;20445;-68
2023/06/29 05:52:09;;;;;;;;;;;;;;;19.97;81.22;99404.97;1690358;83;20186;-67
2023/06/29 05:54:36;;;;;;;;;;;;;;;20.03;80.74;99401.78;1714912;83;20148;-67
2023/06/29 05:57:03;;;;;;;;;;;;;;;20.09;80.82;99403.86;1709045;83;20114;-67
2023/06/29 05:59:29;;;;;;;;;;;;;;;20.16;80.62;99399.66;1708599;83;20124;-67
2023/06/29 06:01:56;;;;;;;;;;;;;;;20.32;80.58;99402.56;1689576;83;20188;-66
2023/06/29 06:04:29;;;;;;;;;;;;;;;20.45;79.91;99401.44;1683418;84;20095;-69
2023/06/29 06:06:53;;;;;;;;;;;;;;;20.53;79.71;99413.03;1683041;84;20183;-68
2023/06/29 06:09:19;;;;;;;;;;;;;;;20.65;79.93;99413.69;1684731;84;20198;-66
2023/06/29 06:11:45;;;;;;;;;;;;;;;20.81;79.50;99404.27;1730568;82;20126;-68
2023/06/29 06:14:13;;;;;;;;;;;;;;;20.93;79.16;99408.42;1720476;82;20136;-67
2023/06/29 06:16:39;;;;;;;;;;;;;;;21.00;78.98;99397.55;1725315;82;20158;-66
2023/06/29 06:19:08;;;;;;;;;;;;;;;21.17;79.03;99400.77;1719651;82;20435;-66
2023/06/29 06:21:34;;;;;;;;;;;;;;;21.37;78.83;99404.64;1724612;82;20113;-66
2023/06/29 06:24:00;;;;;;;;;;;;;;;21.59;78.83;99406.89;1709136;82;20165;-68
2023/06/29 06:26:26;;;;;;;;;;;;;;;21.85;78.26;99404.81;1724024;82;20192;-66
2023/06/29 06:28:54;;;;;;;;;;;;;;;21.99;77.83;99409.58;1700865;83;20403;-66
2023/06/29 06:31:20;;;;;;;;;;;;;;;22.12;77.47;99407.37;1706746;83;20119;-64
2023/06/29 06:33:46;;;;;;;;;;;;;;;22.34;77.31;99405.21;1689051;84;20162;-65
2023/06/29 06:36:12;;;;;;;;;;;;;;;22.61;77.20;99402.08;1703979;83;20196;-66
2023/06/29 06:38:39;;;;;;;;;;;;;;;22.82;76.01;99403.83;1691764;83;20099;-66
2023/06/29 06:41:05;;;;;;;;;;;;;;;22.84;75.00;99409.01;1692914;83;20401;-66
2023/06/29 06:43:31;;;;;;;;;;;;;;;22.81;74.86;99404.84;1722109;82;20161;-66
2023/06/29 06:45:57;;;;;;;;;;;;;;;22.84;75.27;99401.85;1691989;84;20111;-66
2023/06/29 06:48:23;;;;;;;;;;;;;;;23.08;75.31;99405.63;1711639;83;20128;-66
2023/06/29 06:50:50;;;;;;;;;;;;;;;23.34;74.79;99405.08;1706417;83;20185;-66
2023/06/29 06:53:16;;;;;;;;;;;;;;;23.50;74.51;99410.95;1701351;84;20159;-65
2023/06/29 06:55:44;;;;;;;;;;;;;;;23.61;73.47;99415.98;1706557;83;20115;-65
2023/06/29 06:58:11;;;;;;;;;;;;;;;23.64;73.62;99414.81;1699471;83;20164;-66
2023/06/29 07:00:40;;;;;;;;;;;;;;;23.82;73.08;99408.86;1705817;84;20143;-67
2023/06/29 07:03:05;;;;;;;;;;;;;;;23.96;72.77;99406.54;1700945;83;20139;-66
2023/06/29 07:05:31;;;;;;;;;;;;;;;24.32;73.23;99405.69;1701834;84;20169;-66
2023/06/29 07:07:58;;;;;;;;;;;;;;;24.85;72.70;99406.11;1701536;84;20427;-67
2023/06/29 07:10:26;;;;;;;;;;;;;;;25.27;71.81;99401.78;1717840;83;20207;-67
2023/06/29 07:12:54;;;;;;;;;;;;;;;25.40;71.25;99402.05;1690290;84;20115;-67
2023/06/29 07:15:20;;;;;;;;;;;;;;;25.67;70.47;99406.05;1683735;84;20154;-68
2023/06/29 07:17:46;;;;;;;;;;;;;;;26.11;69.84;99404.08;1709928;83;20135;-68
2023/06/29 07:20:13;;;;;;;;;;;;;;;26.75;70.17;99402.81;1709761;83;20409;-69
2023/06/29 07:22:40;;;;;;;;;;;;;;;27.44;68.60;99400.59;1694903;84;20139;-68
2023/06/29 07:25:08;;;;;;;;;;;;;;;27.71;67.24;99406.26;1694205;84;20202;-67
2023/06/29 07:27:34;;;;;;;;;;;;;;;27.94;66.93;99407.95;1693231;83;20465;-69
2023/06/29 07:30:01;;;;;;;;;;;;;;;28.09;67.09;99404.66;1694812;83;20174;-69
2023/06/29 07:32:27;;;;;;;;;;;;;;;28.82;66.64;99402.55;1694096;84;20538;-68
2023/06/29 07:34:53;;;;;;;;;;;;;;;29.51;66.27;99408.31;1690407;84;20157;-68
2023/06/29 07:37:21;;;;;;;;;;;;;;;31.15;67.25;99398.75;1688948;84;20175;-67
2023/06/29 07:39:47;;;;;;;;;;;;;;;32.63;64.69;99401.08;1694723;85;20636;-71
2023/06/29 07:42:13;;;;;;;;;;;;;;;33.83;63.69;99400.91;1688356;85;20487;-69
2023/06/29 07:44:39;;;;;;;;;;;;;;;35.27;61.26;99396.37;1691611;84;20658;-69
2023/06/29 07:47:06;;;;;;;;;;;;;;;36.18;58.18;99401.80;1690694;83;20189;-71
2023/06/29 07:49:36;;;;;;;;;;;;;;;36.84;58.20;99395.70;1746119;82;20201;-68
2023/06/29 07:52:04;;;;;;;;;;;;;;;37.44;57.24;99397.48;1713141;82;20128;-69
2023/06/29 07:54:30;;;;;;;;;;;;;;;37.70;55.35;99395.89;1707305;83;20234;-68
2023/06/29 07:56:57;;;;;;;;;;;;;;;37.66;52.88;99391.20;1702766;83;20146;-69
2023/06/29 07:59:23;;;;;;;;;;;;;;;37.97;52.09;99383.59;1715847;83;20101;-70
2023/06/29 08:01:49;;;;;;;;;;;;;;;38.46;50.74;99379.33;1716331;82;20184;-70
2023/06/29 08:04:16;;;;;;;;;;;;;;;38.58;50.56;99381.02;1695369;83;20139;-71
2023/06/29 08:06:45;;;;;;;;;;;;;;;38.47;47.82;99383.69;1689223;84;20123;-71
2023/06/29 08:09:13;;;;;;;;;;;;;;;38.45;47.61;99374.94;1715983;83;20130;-68
2023/06/29 08:11:39;;;;;;;;;;;;;;;39.03;46.81;99376.87;1715000;82;20165;-71
2023/06/29 08:14:05;;;;;;;;;;;;;;;39.56;45.79;99380.30;1693235;83;20183;-72
2023/06/29 08:16:31;;;;;;;;;;;;;;;40.48;44.79;99374.81;1689677;83;20166;-71
2023/06/29 08:18:58;;;;;;;;;;;;;;;41.48;42.92;99373.86;1691594;83;20178;-71
2023/06/29 08:21:25;;;;;;;;;;;;;;;41.86;41.41;99382.31;1690207;83;20173;-71
2023/06/29 08:23:51;;;;;;;;;;;;;;;42.46;41.57;99380.14;1693900;83;20150;-69
2023/06/29 08:26:17;;;;;;;;;;;;;;;43.12;40.06;99369.44;1688926;84;20107;-70
2023/06/29 08:28:43;;;;;;;;;;;;;;;43.39;38.87;99377.05;1731181;82;20155;-69
2023/06/29 08:31:13;;;;;;;;;;;;;;;43.62;37.71;99374.53;1711410;83;20113;-69
2023/06/29 08:33:39;;;;;;;;;;;;;;;43.77;37.23;99371.52;1687171;84;20409;-66
2023/06/29 08:36:06;;;;;;;;;;;;;;;44.00;36.04;99369.76;1684477;83;20486;-65
2023/06/29 08:38:32;;;;;;;;;;;;;;;43.80;34.86;99357.16;1746417;82;20165;-69
2023/06/29 08:40:59;;;;;;;;;;;;;;;43.24;33.59;99369.83;1743868;82;20119;-68
2023/06/29 08:43:28;;;;;;;;;;;;;;;43.59;32.84;99379.25;1742273;82;20158;-70
2023/06/29 08:45:53;;;;;;;;;;;;;;;43.72;32.63;99373.80;1744386;82;20108;-68
2023/06/29 08:48:20;;;;;;;;;;;;;;;44.19;32.35;99371.88;1741383;82;20577;-68
2023/06/29 08:50:47;;;;;;;;;;;;;;;44.14;30.15;99366.47;1747071;82;20355;-66
2023/06/29 08:53:13;;;;;;;;;;;;;;;43.67;28.98;99381.33;1743654;81;20864;-67
2023/06/29 08:55:41;;;;;;;;;;;;;;;43.30;29.29;99368.67;1743646;81;20108;-65
2023/06/29 08:58:08;;;;;;;;;;;;;;;42.95;28.52;99369.14;1743674;82;20131;-66
2023/06/29 09:00:37;;;;;;;;;;;;;;;42.41;28.50;99369.22;1745230;81;20163;-67
2023/06/29 09:03:03;;;;;;;;;;;;;;;42.51;28.28;99366.09;1704178;82;20090;-68
2023/06/29 09:05:30;;;;;;;;;;;;;;;42.39;27.41;99363.20;1698216;83;20239;-66
2023/06/29 09:07:57;;;;;;;;;;;;;;;42.43;26.89;99361.48;1681362;85;20158;-66
2023/06/29 09:10:23;;;;;;;;;;;;;;;42.69;27.45;99365.33;1743495;82;20123;-66
2023/06/29 09:12:50;;;;;;;;;;;;;;;42.81;27.05;99367.11;1744823;81;20185;-66
2023/06/29 09:15:16;;;;;;;;;;;;;;;42.91;26.78;99369.73;1744095;81;20166;-67
2023/06/29 09:17:48;;;;;;;;;;;;;;;43.38;26.65;99370.47;1714462;82;20133;-67
2023/06/29 09:20:16;;;;;;;;;;;;;;;43.83;25.71;99363.98;1744178;81;20103;-66
2023/06/29 09:22:43;;;;;;;;;;;;;;;44.22;25.45;99367.14;1747801;80;20128;-66
2023/06/29 09:25:14;;;;;;;;;;;;;;;44.39;25.03;99358.88;1746176;80;20138;-67
2023/06/29 09:27:37;;;;;;;;;;;;;;;44.64;24.50;99363.86;1747519;81;20166;-66
2023/06/29 09:30:05;;;;;;;;;;;;;;;44.79;24.30;99367.44;1744753;81;20468;-67
2023/06/29 09:32:33;;;;;;;;;;;;;;;44.57;24.03;99366.80;1750084;80;20198;-64
2023/06/29 09:35:01;;;;;;;;;;;;;;;44.98;23.72;99365.38;1752111;80;20438;-67
2023/06/29 09:37:27;;;;;;;;;;;;;;;45.54;23.75;99369.66;1712060;83;20112;-64
2023/06/29 09:39:58;;;;;;;;;;;;;;;46.40;23.23;99369.91;1685468;85;20415;-65
2023/06/29 09:42:26;;;;;;;;;;;;;;;46.97;22.83;99372.42;1711439;84;20168;-64
2023/06/29 09:44:53;;;;;;;;;;;;;;;47.36;22.39;99376.22;1697932;83;20136;-64
2023/06/29 09:47:19;;;;;;;;;;;;;;;47.79;22.15;99374.05;1721960;82;20199;-65
2023/06/29 09:49:49;;;;;;;;;;;;;;;47.83;21.31;99366.70;1723153;82;20138;-64
2023/06/29 09:52:17;;;;;;;;;;;;;;;48.06;21.18;99368.08;1719868;82;20198;-64
2023/06/29 09:54:43;;;;;;;;;;;;;;;48.16;20.77;99359.45;1711504;83;20117;-65
2023/06/29 09:57:11;;;;;;;;;;;;;;;48.49;21.19;99367.13;1683427;84;20151;-63
2023/06/29 09:59:37;;;;;;;;;;;;;;;48.85;20.27;99368.53;1685400;84;20121;-65
2023/06/29 10:02:04;;;;;;;;;;;;;;;49.11;19.15;99360.66;1709564;83;20444;-64
2023/06/29 10:04:30;;;;;;;;;;;;;;;48.91;19.14;99358.93;1710283;83;20139;-65
2023/06/29 10:06:57;;;;;;;;;;;;;;;49.17;19.49;99357.91;1692724;83;20207;-65
2023/06/29 10:09:24;;;;;;;;;;;;;;;49.38;19.12;99357.90;1689823;83;20132;-65
2023/06/29 10:11:52;;;;;;;;;;;;;;;49.61;19.01;99363.34;1682398;85;20162;-64
2023/06/29 10:14:21;;;;;;;;;;;;;;;49.63;18.67;99361.02;1735855;81;20175;-63
2023/06/29 10:16:49;;;;;;;;;;;;;;;49.36;18.40;99361.03;1708188;83;20547;-64
2023/06/29 10:19:19;;;;;;;;;;;;;;;49.98;18.10;99350.16;1688143;83;20229;-64
2023/06/29 10:21:47;;;;;;;;;;;;;;;50.29;18.03;99354.59;1714375;83;20207;-63
2023/06/29 10:24:15;;;;;;;;;;;;;;;50.29;17.97;99358.77;1686408;84;20127;-64
2023/06/29 10:26:43;;;;;;;;;;;;;;;50.77;17.85;99362.68;1686189;84;20573;-65
2023/06/29 10:29:09;;;;;;;;;;;;;;;50.91;17.32;99355.94;1709862;82;20185;-63
2023/06/29 10:31:35;;;;;;;;;;;;;;;50.49;16.95;99354.83;1695818;83;20219;-64
2023/06/29 10:34:05;;;;;;;;;;;;;;;50.64;16.86;99355.52;1690164;84;20205;-64
2023/06/29 10:36:48;;;;;;;;;;;;;;;51.13;16.58;99349.88;1710540;83;20182;-64
2023/06/29 10:39:33;;;;;;;;;;;;;;;50.91;16.10;99355.94;1703241;83;20099;-64
2023/06/29 10:41:59;;;;;;;;;;;;;;;50.95;16.51;99357.67;1715262;83;20152;-65
2023/06/29 10:44:26;;;;;;;;;;;;;;;51.23;16.29;99343.82;1710854;83;20175;-64
2023/06/29 10:46:54;;;;;;;;;;;;;;;50.85;15.17;99347.63;1699682;82;20130;-64
2023/06/29 10:49:22;;;;;;;;;;;;;;;50.76;15.33;99350.55;1721229;82;20115;-64
2023/06/29 10:51:56;;;;;;;;;;;;;;;50.72;15.60;99357.36;1717483;82;20539;-65
2023/06/29 10:54:25;;;;;;;;;;;;;;;50.70;15.08;99347.20;1721535;82;20108;-65
2023/06/29 10:57:01;;;;;;;;;;;;;;;50.52;14.87;99352.73;1721231;82;20191;-65
2023/06/29 10:59:31;;;;;;;;;;;;;;;50.44;14.95;99348.91;1718601;82;20439;-65
2023/06/29 11:01:58;;;;;;;;;;;;;;;49.40;14.77;99345.31;1718536;82;20211;-66
2023/06/29 11:04:24;;;;;;;;;;;;;;;48.76;14.83;99337.31;1717257;82;20104;-64
2023/06/29 11:06:50;;;;;;;;;;;;;;;48.44;15.01;99345.16;1718704;82;20121;-64
2023/06/29 11:09:17;;;;;;;;;;;;;;;47.55;14.66;99340.77;1720589;82;20175;-65
2023/06/29 11:11:44;;;;;;;;;;;;;;;46.80;15.04;99348.35;1722381;82;20164;-63
2023/06/29 11:14:12;;;;;;;;;;;;;;;46.31;15.15;99346.19;1719570;83;20108;-64
2023/06/29 11:16:42;;;;;;;;;;;;;;;46.32;15.55;99343.09;1712967;83;20186;-64
2023/06/29 11:19:11;;;;;;;;;;;;;;;46.39;15.52;99336.55;1731090;81;21003;-65
2023/06/29 11:21:38;;;;;;;;;;;;;;;46.27;15.67;99340.44;1720421;82;20109;-64
2023/06/29 11:24:06;;;;;;;;;;;;;;;46.22;15.69;99336.47;1709271;83;20183;-65
2023/06/29 11:26:32;;;;;;;;;;;;;;;45.64;15.89;99342.95;1701668;84;20113;-64
2023/06/29 11:28:59;;;;;;;;;;;;;;;45.24;16.05;99327.64;1702515;83;20202;-65
2023/06/29 11:31:28;;;;;;;;;;;;;;;44.88;16.30;99335.32;1700548;83;20214;-63
2023/06/29 11:33:56;;;;;;;;;;;;;;;44.73;16.24;99328.72;1698890;83;20543;-65
2023/06/29 11:36:27;;;;;;;;;;;;;;;44.19;16.36;99331.98;1702391;83;20159;-64
2023/06/29 11:39:04;;;;;;;;;;;;;;;43.76;16.58;99326.70;1699360;83;20182;-65
2023/06/29 11:41:33;;;;;;;;;;;;;;;43.31;16.57;99331.83;1714783;81;20495;-65
2023/06/29 11:44:00;;;;;;;;;;;;;;;42.70;16.91;99334.82;1716257;83;20512;-64
2023/06/29 11:46:27;;;;;;;;;;;;;;;42.42;16.95;99334.36;1686929;83;20552;-65
2023/06/29 11:48:56;;;;;;;;;;;;;;;41.88;17.38;99332.13;1722383;82;20188;-65
2023/06/29 11:51:28;;;;;;;;;;;;;;;41.58;17.72;99332.66;1691266;83;20195;-65
2023/06/29 11:53:56;;;;;;;;;;;;;;;41.43;17.84;99331.95;1719207;83;20132;-65
2023/06/29 11:56:24;;;;;;;;;;;;;;;41.11;17.98;99330.50;1708227;83;20171;-65
2023/06/29 11:58:50;;;;;;;;;;;;;;;41.01;18.25;99323.16;1709201;82;20211;-65
2023/06/29 12:01:16;;;;;;;;;;;;;;;40.09;18.13;99325.38;1720290;82;20179;-64
2023/06/29 12:03:43;;;;;;;;;;;;;;;39.06;18.32;99332.11;1717006;82;20238;-64
2023/06/29 12:06:09;;;;;;;;;;;;;;;38.03;18.54;99339.48;1718525;82;20168;-64
2023/06/29 12:08:51;;;;;;;;;;;;;;;;;;;;;
2023/06/29 12:11:15;;;;;;;;;;;;;;;35.97;19.65;99331.89;1703642;83;20263;-63
2023/06/29 12:13:43;;;;;;;;;;;;;;;34.57;20.29;99328.73;1718441;82;20202;-64
2023/06/29 12:16:13;;;;;;;;;;;;;;;33.55;20.50;99327.11;1708951;83;20478;-65
2023/06/29 12:18:41;;;;;;;;;;;;;;;32.44;20.95;99334.52;1708823;83;20204;-63
2023/06/29 12:21:09;;;;;;;;;;;;;;;31.67;22.21;99342.84;1725287;82;20517;-64
2023/06/29 12:23:37;;;;;;;;;;;;;;;31.02;22.33;99330.05;1705081;83;20192;-64
2023/06/29 12:26:02;;;;;;;;;;;;;;;30.45;22.65;99348.16;1726562;82;20409;-65
2023/06/29 12:28:29;;;;;;;;;;;;;;;30.05;23.28;99342.80;1711570;83;20211;-65
2023/06/29 12:31:00;;;;;;;;;;;;;;;29.58;23.71;99344.61;1697795;82;20205;-65
2023/06/29 12:33:33;;;;;;;;;;;;;;;29.12;23.79;99342.62;1700471;82;20530;-65
2023/06/29 12:35:58;;;;;;;;;;;;;;;28.73;24.16;99338.72;1705767;82;20164;-63
2023/06/29 12:38:25;;;;;;;;;;;;;;;28.34;24.36;99337.46;1713906;82;20177;-65
2023/06/29 12:40:53;;;;;;;;;;;;;;;27.98;25.30;99339.45;1683818;84;20226;-64
2023/06/29 12:43:18;;;;;;;;;;;;;;;27.56;25.49;99334.41;1703499;83;20176;-64
2023/06/29 12:45:52;;;;;;;;;;;;;;;27.27;25.97;99336.70;1705886;84;20172;-63